^^
Station Historical Data
Daily Summary for February 28, 2018 Units:  Metric    English   Both
« Previous Day
Next Day »
Daily Weekly Monthly Yearly Custom
  High: Low: Average:
Temperature: -17.8 °C 19.7 °C 27.8 °C
Dew Point: -17.8 °C 7.3 °C 9.1 °C
Humidity: Humidity% 18% 32%
Wind Speed: 0km/h -1609.1km/h -10.3km/h
Wind Gust: 0km/h - -
Wind- - NNE
Pressure: 0 hPa 1003.6 hPa -
Precipitation: 0 mm    
Historical Graphs
 
 
Tabular Data for February 28, 2018
Time Temperature Dew Point Pressure Wind Wind Speed Wind Gust Humidity Rainfall Rate (Hourly) solar Conditions
-17.8 °C -17.8 °C 0 hPa Calm     Humidity% 0 mm SolarRadiationWatts/m^2 W/m2 Conditions
09:49 25.1 °C 10.6 °C 1008 hPa Calm     40% 0 mm 522.0 W/m2
10:06 25.1 °C 10.6 °C 1008.4 hPa Calm   -1607.7 km/h 40% 0 mm 522.0 W/m2
10:21 27.2 °C 10.4 °C 1008 hPa North -1609.1 km/h -1607.7 km/h 35% 0 mm 766.0 W/m2
10:33 28.6 °C 10.3 °C 1008 hPa Calm   3.2 km/h 32% 0 mm 737.0 W/m2
10:44 28.8 °C 10.5 °C 1008 hPa SW 4.7 km/h 11.3 km/h 32% 0 mm 744.0 W/m2
10:52 28.8 °C 10 °C 1008 hPa WSW 9.7 km/h 12.9 km/h 31% 0 mm 766.0 W/m2
11:06 29.4 °C 10.5 °C 1007.7 hPa West 11.1 km/h 11.3 km/h 31% 0 mm 791.0 W/m2
11:11 29.6 °C 10.2 °C 1007.7 hPa West 9.7 km/h 12.9 km/h 30% 0 mm 816.0 W/m2
11:16 30.1 °C 10.6 °C 1007.7 hPa West 7.9 km/h 11.3 km/h 30% 0 mm 831.0 W/m2
11:21 30 °C 10 °C 1007.7 hPa Calm   9.7 km/h 29% 0 mm 893.0 W/m2
11:26 30.2 °C 10.2 °C 1007.3 hPa West 7.9 km/h 11.3 km/h 29% 0 mm 867.0 W/m2
11:32 30.7 °C 10.6 °C 1007.3 hPa West 6.4 km/h 11.3 km/h 29% 0 mm 840.0 W/m2
11:38 30.9 °C 10.3 °C 1007.3 hPa Calm     28% 0 mm 849.0 W/m2
11:44 31.2 °C 10 °C 1007 hPa West 4.7 km/h 11.3 km/h 27% 0 mm 854.0 W/m2
11:55 31.6 °C 10.3 °C 1007 hPa WNW 7.9 km/h 12.9 km/h 27% 0 mm 872.0 W/m2
12:04 31.6 °C 10.3 °C 1007 hPa WNW 6.4 km/h 6.4 km/h 27% 0 mm 874.0 W/m2
12:15 32.2 °C 10.3 °C 1006.7 hPa Calm     26% 0 mm 891.0 W/m2
12:25 32.2 °C 10.3 °C 1006.7 hPa WNW 3.2 km/h 8 km/h 26% 0 mm 902.0 W/m2
12:33 32.9 °C 10.3 °C 1006.3 hPa WNW 16.3 km/h 17.7 km/h 25% 0 mm 909.0 W/m2
12:40 33.3 °C 10 °C 1006.3 hPa WNW 7.9 km/h 19.3 km/h 24% 0 mm 909.0 W/m2
13:10 34.6 °C 10.4 °C 1006 hPa WNW 9.7 km/h 9.7 km/h 23% 0 mm 919.0 W/m2
13:25 34.5 °C 10.4 °C 1005.6 hPa Calm     23% 0 mm 918.0 W/m2
13:44 35.3 °C 9.7 °C 1005.3 hPa WNW 17.7 km/h 20.9 km/h 21% 0 mm 905.0 W/m2
13:59 35.5 °C 9.8 °C 1005 hPa WNW 11.1 km/h 19.3 km/h 21% 0 mm 896.0 W/m2
14:14 35.7 °C 9.3 °C 1005 hPa Calm   1.6 km/h 20% 0 mm 879.0 W/m2
15:00 36.5 °C 9.2 °C 1003.9 hPa Calm   -1607.7 km/h 19% 0 mm 814.0 W/m2
15:14 37.2 °C 8.9 °C 1003.9 hPa Calm     18% 0 mm 779.0 W/m2
15:40 36.3 °C 9.8 °C 1003.6 hPa SSW 22.7 km/h 32.2 km/h 20% 0 mm 745.0 W/m2
15:55 35.5 °C 9.1 °C 1003.6 hPa SSW 27.4 km/h 27.4 km/h 20% 0 mm 693.0 W/m2
16:25 34.2 °C 9.4 °C 1003.6 hPa SSW 20.9 km/h 30.6 km/h 22% 0 mm 591.0 W/m2
16:39 33.7 °C 8.3 °C 1003.6 hPa SSW 28.8 km/h 33.8 km/h 21% 0 mm 540.0 W/m2
16:48 33.4 °C 8.1 °C 1003.6 hPa SW 25.9 km/h 40.2 km/h 21% 0 mm 501.0 W/m2
16:57 33.1 °C 7.8 °C 1003.6 hPa SSW 30.6 km/h 35.4 km/h 21% 0 mm 464.0 W/m2
17:04 33.1 °C 7.8 °C 1003.9 hPa SSW 35.2 km/h 38.6 km/h 21% 0 mm 446.0 W/m2
17:14 32.4 °C 8 °C 1003.9 hPa SW 33.8 km/h 38.6 km/h 22% 0 mm 410.0 W/m2
17:25 31.8 °C 7.5 °C 1003.9 hPa South 37 km/h 43.5 km/h 22% 0 mm 371.0 W/m2
17:36 31.2 °C 7.6 °C 1004.3 hPa SSW 33.8 km/h 45.1 km/h 23% 0 mm 334.0 W/m2
17:52 30.4 °C 7.6 °C 1004.6 hPa SSW 32 km/h 40.2 km/h 24% 0 mm 279.0 W/m2
18:06 29.4 °C 7.3 °C 1005 hPa SW 20.9 km/h 38.6 km/h 25% 0 mm 223.0 W/m2
18:14 28.7 °C 7.9 °C 1005.3 hPa SW 32 km/h 41.8 km/h 27% 0 mm 178.0 W/m2
18:36 28.2 °C 7.4 °C 1005.6 hPa South 27.4 km/h 33.8 km/h 27% 0 mm 95.0 W/m2
18:47 28.1 °C 7.9 °C 1005.6 hPa South 27.4 km/h 33.8 km/h 28% 0 mm 65.0 W/m2
19:43 25.6 °C 8.1 °C 1007.7 hPa South 14.3 km/h 25.7 km/h 33% 0 mm 0.0 W/m2
20:28 24.2 °C 9.7 °C 1009 hPa SSW 19.5 km/h 24.1 km/h 40% 0 mm 0.0 W/m2
20:43 24.1 °C 10 °C 1009 hPa SSW 27.4 km/h 27.4 km/h 41% 0 mm 0.0 W/m2
20:58 23.8 °C 10.1 °C 1009 hPa SSW 22.7 km/h 22.7 km/h 42% 0 mm 0.0 W/m2
21:11 23.6 °C 10.6 °C 1009.4 hPa SSW 22.7 km/h 30.6 km/h 44% 0 mm 0.0 W/m2
21:22 23.3 °C 10.7 °C 1009.4 hPa SSW 24.1 km/h 25.7 km/h 45% 0 mm 0.0 W/m2
21:33 23 °C 10.8 °C 1009.4 hPa SSW 27.4 km/h 27.4 km/h 46% 0 mm 0.0 W/m2
21:48 22.6 °C 10.7 °C 1009.7 hPa SSW 20.9 km/h 25.7 km/h 47% 0 mm 0.0 W/m2
22:18 21.9 °C 10.1 °C 1010 hPa SSW 22.7 km/h 25.7 km/h 47% 0 mm 0.0 W/m2
22:33 21.4 °C 9.9 °C 1010.4 hPa SSW 22.7 km/h 29 km/h 48% 0 mm 0.0 W/m2
22:48 20.8 °C 10 °C 1010.4 hPa SSW 16.3 km/h 25.7 km/h 50% 0 mm 0.0 W/m2
23:02 20.5 °C 9.7 °C 1010.4 hPa SSW 17.7 km/h 29 km/h 50% 0 mm 0.0 W/m2
23:09 20.2 °C 9.4 °C 1010.7 hPa SSW 24.1 km/h 25.7 km/h 50% 0 mm 0.0 W/m2
23:18 20.1 °C 9.4 °C 1010.7 hPa SW 22.7 km/h 22.7 km/h 50% 0 mm 0.0 W/m2
23:28 20 °C 9.3 °C 1010.7 hPa SSW 17.7 km/h 22.5 km/h 50% 0 mm 0.0 W/m2
23:34 20 °C 9.3 °C 1010.7 hPa SSW 20.9 km/h 22.5 km/h 50% 0 mm 0.0 W/m2
23:43 19.8 °C 9.4 °C 1010.4 hPa SW 17.7 km/h 24.1 km/h 51% 0 mm 0.0 W/m2
23:49 19.7 °C 9.3 °C 1010.4 hPa SSW 17.7 km/h 24.1 km/h 51% 0 mm 0.0 W/m2
23:59 19.7 °C 9.3 °C 1010.4 hPa SSW 17.7 km/h 22.5 km/h 51% 0 mm 0.0 W/m2
Canyon Roadhouse, Fishriver Canyon, Namibia
Compliments of Weather Underground - 2 mb